sensor_id;sensor_type;location;lat;lon;timestamp;pressure;altitude;pressure_sealevel;temperature;humidity
71966;BME280;59836;52.132;5.442;2024-01-25T00:01:34;102767.34;;;8.34;96.68
71966;BME280;59836;52.132;5.442;2024-01-25T00:04:01;102772.13;;;8.32;96.80
71966;BME280;59836;52.132;5.442;2024-01-25T00:06:28;102774.22;;;8.30;97.23
71966;BME280;59836;52.132;5.442;2024-01-25T00:08:54;102771.94;;;8.26;97.43
71966;BME280;59836;52.132;5.442;2024-01-25T00:11:21;102781.91;;;8.26;97.37
71966;BME280;59836;52.132;5.442;2024-01-25T00:13:47;102780.44;;;8.23;97.37
71966;BME280;59836;52.132;5.442;2024-01-25T00:16:14;102778.78;;;8.22;97.52
71966;BME280;59836;52.132;5.442;2024-01-25T00:18:41;102794.38;;;8.20;97.62
71966;BME280;59836;52.132;5.442;2024-01-25T00:21:07;102781.91;;;8.19;97.31
71966;BME280;59836;52.132;5.442;2024-01-25T00:23:34;102777.53;;;8.18;97.42
71966;BME280;59836;52.132;5.442;2024-01-25T00:26:00;102775.84;;;8.17;97.33
71966;BME280;59836;52.132;5.442;2024-01-25T00:28:27;102776.28;;;8.14;97.64
71966;BME280;59836;52.132;5.442;2024-01-25T00:30:55;102775.44;;;8.13;98.24
71966;BME280;59836;52.132;5.442;2024-01-25T00:33:21;102786.44;;;8.12;97.81
71966;BME280;59836;52.132;5.442;2024-01-25T00:35:48;102787.72;;;8.09;97.30
71966;BME280;59836;52.132;5.442;2024-01-25T00:38:16;102780.81;;;8.07;97.73
71966;BME280;59836;52.132;5.442;2024-01-25T00:40:43;102785.41;;;8.06;98.12
71966;BME280;59836;52.132;5.442;2024-01-25T00:43:10;102790.38;;;8.03;97.59
71966;BME280;59836;52.132;5.442;2024-01-25T00:45:36;102786.22;;;8.00;98.00
71966;BME280;59836;52.132;5.442;2024-01-25T00:48:03;102793.91;;;7.96;98.21
71966;BME280;59836;52.132;5.442;2024-01-25T00:50:30;102797.44;;;7.97;98.21
71966;BME280;59836;52.132;5.442;2024-01-25T00:52:58;102803.66;;;7.97;97.79
71966;BME280;59836;52.132;5.442;2024-01-25T00:55:24;102801.19;;;7.96;98.26
71966;BME280;59836;52.132;5.442;2024-01-25T00:57:51;102804.91;;;7.95;98.20
71966;BME280;59836;52.132;5.442;2024-01-25T01:00:19;102808.44;;;7.95;98.11
71966;BME280;59836;52.132;5.442;2024-01-25T01:02:46;102815.31;;;7.91;98.14
71966;BME280;59836;52.132;5.442;2024-01-25T01:05:14;102823.59;;;7.90;98.02
71966;BME280;59836;52.132;5.442;2024-01-25T01:07:41;102816.75;;;7.87;98.13
71966;BME280;59836;52.132;5.442;2024-01-25T01:10:09;102810.72;;;7.85;98.33
71966;BME280;59836;52.132;5.442;2024-01-25T01:12:36;102811.94;;;7.82;98.72
71966;BME280;59836;52.132;5.442;2024-01-25T01:15:03;102818.59;;;7.80;98.56
71966;BME280;59836;52.132;5.442;2024-01-25T01:17:30;102819.63;;;7.79;98.77
71966;BME280;59836;52.132;5.442;2024-01-25T01:19:56;102820.03;;;7.76;98.47
71966;BME280;59836;52.132;5.442;2024-01-25T01:22:23;102823.78;;;7.75;98.54
71966;BME280;59836;52.132;5.442;2024-01-25T01:24:50;102834.75;;;7.73;98.37
71966;BME280;59836;52.132;5.442;2024-01-25T01:27:17;102832.28;;;7.72;99.29
71966;BME280;59836;52.132;5.442;2024-01-25T01:29:43;102830.59;;;7.71;98.67
71966;BME280;59836;52.132;5.442;2024-01-25T01:32:10;102826.41;;;7.68;98.66
71966;BME280;59836;52.132;5.442;2024-01-25T01:34:36;102833.06;;;7.65;99.05
71966;BME280;59836;52.132;5.442;2024-01-25T01:37:03;102835.13;;;7.63;98.92
71966;BME280;59836;52.132;5.442;2024-01-25T01:39:30;102834.28;;;7.63;99.36
71966;BME280;59836;52.132;5.442;2024-01-25T01:41:56;102832.63;;;7.62;98.98
71966;BME280;59836;52.132;5.442;2024-01-25T01:44:23;102829.28;;;7.60;99.23
71966;BME280;59836;52.132;5.442;2024-01-25T01:46:50;102826.81;;;7.58;99.49
71966;BME280;59836;52.132;5.442;2024-01-25T01:49:16;102829.69;;;7.57;99.27
71966;BME280;59836;52.132;5.442;2024-01-25T01:51:44;102836.13;;;7.56;99.33
71966;BME280;59836;52.132;5.442;2024-01-25T01:54:11;102839.03;;;7.54;99.44
71966;BME280;59836;52.132;5.442;2024-01-25T01:56:38;102833.00;;;7.52;99.33
71966;BME280;59836;52.132;5.442;2024-01-25T01:59:09;102844.84;;;7.51;99.36
71966;BME280;59836;52.132;5.442;2024-01-25T02:01:39;102845.88;;;7.50;99.28
71966;BME280;59836;52.132;5.442;2024-01-25T02:04:06;102859.75;;;7.47;99.06
71966;BME280;59836;52.132;5.442;2024-01-25T02:06:33;102855.41;;;7.46;99.34
71966;BME280;59836;52.132;5.442;2024-01-25T02:09:00;102853.72;;;7.45;99.54
71966;BME280;59836;52.132;5.442;2024-01-25T02:11:28;102861.41;;;7.41;99.55
71966;BME280;59836;52.132;5.442;2024-01-25T02:13:55;102859.09;;;7.38;99.30
71966;BME280;59836;52.132;5.442;2024-01-25T02:16:22;102870.28;;;7.35;99.23
71966;BME280;59836;52.132;5.442;2024-01-25T02:18:50;102868.16;;;7.30;99.34
71966;BME280;59836;52.132;5.442;2024-01-25T02:21:16;102878.31;;;7.28;99.63
71966;BME280;59836;52.132;5.442;2024-01-25T02:23:43;102888.47;;;7.26;99.37
71966;BME280;59836;52.132;5.442;2024-01-25T02:26:10;102883.47;;;7.23;99.54
71966;BME280;59836;52.132;5.442;2024-01-25T02:28:37;102890.94;;;7.21;99.67
71966;BME280;59836;52.132;5.442;2024-01-25T02:31:03;102896.72;;;7.18;99.78
71966;BME280;59836;52.132;5.442;2024-01-25T02:33:30;102897.97;;;7.15;100.00
71966;BME280;59836;52.132;5.442;2024-01-25T02:35:57;102900.19;;;7.12;99.61
71966;BME280;59836;52.132;5.442;2024-01-25T02:38:24;102896.88;;;7.09;99.91
71966;BME280;59836;52.132;5.442;2024-01-25T02:40:51;102895.19;;;7.08;99.97
71966;BME280;59836;52.132;5.442;2024-01-25T02:43:19;102903.69;;;7.05;100.00
71966;BME280;59836;52.132;5.442;2024-01-25T02:45:46;102897.84;;;7.02;100.00
71966;BME280;59836;52.132;5.442;2024-01-25T02:48:15;102905.47;;;6.98;100.00
71966;BME280;59836;52.132;5.442;2024-01-25T02:50:42;102904.19;;;6.94;100.00
71966;BME280;59836;52.132;5.442;2024-01-25T02:53:08;102905.63;;;6.90;100.00
71966;BME280;59836;52.132;5.442;2024-01-25T02:55:35;102914.13;;;6.87;100.00
71966;BME280;59836;52.132;5.442;2024-01-25T02:58:01;102913.47;;;6.85;100.00
71966;BME280;59836;52.132;5.442;2024-01-25T03:00:28;102909.50;;;6.81;100.00
71966;BME280;59836;52.132;5.442;2024-01-25T03:02:55;102918.78;;;6.78;99.87
71966;BME280;59836;52.132;5.442;2024-01-25T03:05:21;102912.97;;;6.74;100.00
71966;BME280;59836;52.132;5.442;2024-01-25T03:07:48;102910.66;;;6.71;99.82
71966;BME280;59836;52.132;5.442;2024-01-25T03:10:15;102908.34;;;6.68;100.00
71966;BME280;59836;52.132;5.442;2024-01-25T03:12:41;102901.66;;;6.64;100.00
71966;BME280;59836;52.132;5.442;2024-01-25T03:15:10;102898.31;;;6.62;100.00
71966;BME280;59836;52.132;5.442;2024-01-25T03:17:38;102904.09;;;6.59;100.00
71966;BME280;59836;52.132;5.442;2024-01-25T03:20:05;102902.81;;;6.55;100.00
71966;BME280;59836;52.132;5.442;2024-01-25T03:22:32;102904.22;;;6.50;100.00
71966;BME280;59836;52.132;5.442;2024-01-25T03:24:58;102907.28;;;6.47;100.00
71966;BME280;59836;52.132;5.442;2024-01-25T03:27:25;102909.34;;;6.45;100.00
71966;BME280;59836;52.132;5.442;2024-01-25T03:29:52;102906.38;;;6.40;100.00
71966;BME280;59836;52.132;5.442;2024-01-25T03:32:18;102913.81;;;6.38;100.00
71966;BME280;59836;52.132;5.442;2024-01-25T03:34:45;102911.50;;;6.35;100.00
71966;BME280;59836;52.132;5.442;2024-01-25T03:37:11;102907.13;;;6.34;100.00
71966;BME280;59836;52.132;5.442;2024-01-25T03:39:38;102909.19;;;6.32;100.00
71966;BME280;59836;52.132;5.442;2024-01-25T03:42:05;102902.13;;;6.31;100.00
71966;BME280;59836;52.132;5.442;2024-01-25T03:44:31;102893.41;;;6.29;100.00
71966;BME280;59836;52.132;5.442;2024-01-25T03:46:58;102889.03;;;6.28;100.00
71966;BME280;59836;52.132;5.442;2024-01-25T03:49:24;102887.56;;;6.25;100.00
71966;BME280;59836;52.132;5.442;2024-01-25T03:51:51;102896.66;;;6.24;100.00
71966;BME280;59836;52.132;5.442;2024-01-25T03:54:18;102897.88;;;6.22;100.00
71966;BME280;59836;52.132;5.442;2024-01-25T03:56:45;102899.09;;;6.19;100.00
71966;BME280;59836;52.132;5.442;2024-01-25T03:59:11;102903.63;;;6.18;100.00
71966;BME280;59836;52.132;5.442;2024-01-25T04:01:46;102904.00;;;6.15;100.00
71966;BME280;59836;52.132;5.442;2024-01-25T04:04:14;102911.06;;;6.16;100.00
71966;BME280;59836;52.132;5.442;2024-01-25T04:06:42;102906.91;;;6.14;100.00
71966;BME280;59836;52.132;5.442;2024-01-25T04:09:09;102901.03;;;6.10;100.00
71966;BME280;59836;52.132;5.442;2024-01-25T04:11:37;102894.00;;;6.09;100.00
71966;BME280;59836;52.132;5.442;2024-01-25T04:14:04;102888.97;;;6.06;100.00
71966;BME280;59836;52.132;5.442;2024-01-25T04:16:32;102887.31;;;6.05;100.00
71966;BME280;59836;52.132;5.442;2024-01-25T04:18:59;102896.63;;;6.02;100.00
71966;BME280;59836;52.132;5.442;2024-01-25T04:21:26;102902.16;;;6.01;100.00
71966;BME280;59836;52.132;5.442;2024-01-25T04:23:53;102900.47;;;6.00;100.00
71966;BME280;59836;52.132;5.442;2024-01-25T04:26:19;102895.47;;;5.97;100.00
71966;BME280;59836;52.132;5.442;2024-01-25T04:28:46;102900.41;;;5.93;100.00
71966;BME280;59836;52.132;5.442;2024-01-25T04:31:12;102903.25;;;5.91;100.00
71966;BME280;59836;52.132;5.442;2024-01-25T04:33:39;102910.88;;;5.88;100.00
71966;BME280;59836;52.132;5.442;2024-01-25T04:36:11;102912.94;;;5.86;100.00
71966;BME280;59836;52.132;5.442;2024-01-25T04:38:37;102917.88;;;5.82;100.00
71966;BME280;59836;52.132;5.442;2024-01-25T04:41:05;102917.22;;;5.80;100.00
71966;BME280;59836;52.132;5.442;2024-01-25T04:43:35;102900.13;;;5.73;100.00
71966;BME280;59836;52.132;5.442;2024-01-25T04:46:04;102907.09;;;5.67;100.00
71966;BME280;59836;52.132;5.442;2024-01-25T04:48:31;102910.63;;;5.68;100.00
71966;BME280;59836;52.132;5.442;2024-01-25T04:50:59;102907.38;;;5.72;100.00
71966;BME280;59836;52.132;5.442;2024-01-25T04:53:26;102911.72;;;5.73;100.00
71966;BME280;59836;52.132;5.442;2024-01-25T04:55:55;102908.88;;;5.75;100.00
71966;BME280;59836;52.132;5.442;2024-01-25T04:58:23;102909.88;;;5.74;100.00
71966;BME280;59836;52.132;5.442;2024-01-25T05:00:49;102909.88;;;5.74;100.00
71966;BME280;59836;52.132;5.442;2024-01-25T05:03:19;102910.06;;;5.72;100.00
71966;BME280;59836;52.132;5.442;2024-01-25T05:05:46;102907.38;;;5.72;100.00
71966;BME280;59836;52.132;5.442;2024-01-25T05:08:13;102909.22;;;5.72;100.00
71966;BME280;59836;52.132;5.442;2024-01-25T05:10:40;102923.72;;;5.71;100.00
71966;BME280;59836;52.132;5.442;2024-01-25T05:13:08;102921.03;;;5.71;100.00
71966;BME280;59836;52.132;5.442;2024-01-25T05:15:35;102912.94;;;5.71;100.00
71966;BME280;59836;52.132;5.442;2024-01-25T05:18:02;102915.00;;;5.69;100.00
71966;BME280;59836;52.132;5.442;2024-01-25T05:20:30;102915.34;;;5.66;100.00
71966;BME280;59836;52.132;5.442;2024-01-25T05:23:03;102915.34;;;5.66;100.00
71966;BME280;59836;52.132;5.442;2024-01-25T05:25:30;102920.25;;;5.62;100.00
71966;BME280;59836;52.132;5.442;2024-01-25T05:27:57;102918.59;;;5.61;100.00
71966;BME280;59836;52.132;5.442;2024-01-25T05:30:25;102919.44;;;5.61;100.00
71966;BME280;59836;52.132;5.442;2024-01-25T05:32:52;102918.59;;;5.61;100.00
71966;BME280;59836;52.132;5.442;2024-01-25T05:35:21;102924.16;;;5.59;100.00
71966;BME280;59836;52.132;5.442;2024-01-25T05:37:47;102935.97;;;5.58;100.00
71966;BME280;59836;52.132;5.442;2024-01-25T05:40:14;102935.97;;;5.58;100.00
71966;BME280;59836;52.132;5.442;2024-01-25T05:42:41;102936.78;;;5.59;100.00
71966;BME280;59836;52.132;5.442;2024-01-25T05:45:08;102933.06;;;5.60;100.00
71966;BME280;59836;52.132;5.442;2024-01-25T05:47:35;102928.91;;;5.57;100.00
71966;BME280;59836;52.132;5.442;2024-01-25T05:50:03;102948.75;;;5.56;100.00
71966;BME280;59836;52.132;5.442;2024-01-25T05:52:31;102943.75;;;5.53;100.00
71966;BME280;59836;52.132;5.442;2024-01-25T05:54:58;102942.06;;;5.52;100.00
71966;BME280;59836;52.132;5.442;2024-01-25T05:57:29;102932.31;;;5.51;100.00
71966;BME280;59836;52.132;5.442;2024-01-25T05:59:56;102937.06;;;5.49;100.00
71966;BME280;59836;52.132;5.442;2024-01-25T06:02:22;102935.38;;;5.48;100.00
71966;BME280;59836;52.132;5.442;2024-01-25T06:04:49;102936.56;;;5.45;100.00
71966;BME280;59836;52.132;5.442;2024-01-25T06:07:16;102950.22;;;5.44;100.00
71966;BME280;59836;52.132;5.442;2024-01-25T06:09:43;102955.78;;;5.42;100.00
71966;BME280;59836;52.132;5.442;2024-01-25T06:12:09;102955.13;;;5.40;100.00
71966;BME280;59836;52.132;5.442;2024-01-25T06:14:36;102958.00;;;5.39;100.00
71966;BME280;59836;52.132;5.442;2024-01-25T06:17:03;102945.94;;;5.35;100.00
71966;BME280;59836;52.132;5.442;2024-01-25T06:19:30;102950.31;;;5.36;100.00
71966;BME280;59836;52.132;5.442;2024-01-25T06:21:57;102953.34;;;5.32;100.00
71966;BME280;59836;52.132;5.442;2024-01-25T06:24:23;102955.38;;;5.30;100.00
71966;BME280;59836;52.132;5.442;2024-01-25T06:26:50;102955.09;;;5.25;100.00
71966;BME280;59836;52.132;5.442;2024-01-25T06:29:16;102955.28;;;5.24;100.00
71966;BME280;59836;52.132;5.442;2024-01-25T06:31:43;102954.44;;;5.23;100.00
71966;BME280;59836;52.132;5.442;2024-01-25T06:34:10;102956.47;;;5.21;100.00
71966;BME280;59836;52.132;5.442;2024-01-25T06:36:39;102955.66;;;5.21;100.00
71966;BME280;59836;52.132;5.442;2024-01-25T06:39:06;102960.19;;;5.20;100.00
71966;BME280;59836;52.132;5.442;2024-01-25T06:41:33;102970.94;;;5.20;100.00
71966;BME280;59836;52.132;5.442;2024-01-25T06:44:00;102967.44;;;5.20;100.00
71966;BME280;59836;52.132;5.442;2024-01-25T06:46:26;102976.31;;;5.20;100.00
71966;BME280;59836;52.132;5.442;2024-01-25T06:48:53;102965.75;;;5.19;100.00
71966;BME280;59836;52.132;5.442;2024-01-25T06:51:20;102958.50;;;5.19;100.00
71966;BME280;59836;52.132;5.442;2024-01-25T06:53:46;102961.03;;;5.21;100.00
71966;BME280;59836;52.132;5.442;2024-01-25T06:56:13;102966.41;;;5.21;100.00
71966;BME280;59836;52.132;5.442;2024-01-25T06:58:40;102972.81;;;5.20;100.00
71966;BME280;59836;52.132;5.442;2024-01-25T07:01:07;102977.34;;;5.19;100.00
71966;BME280;59836;52.132;5.442;2024-01-25T07:03:34;102980.38;;;5.16;100.00
71966;BME280;59836;52.132;5.442;2024-01-25T07:06:01;102976.88;;;5.15;100.00
71966;BME280;59836;52.132;5.442;2024-01-25T07:08:28;102975.00;;;5.16;100.00
71966;BME280;59836;52.132;5.442;2024-01-25T07:10:55;102967.59;;;5.18;100.00
71966;BME280;59836;52.132;5.442;2024-01-25T07:13:22;102960.53;;;5.17;100.00
71966;BME280;59836;52.132;5.442;2024-01-25T07:15:49;102964.25;;;5.16;100.00
71966;BME280;59836;52.132;5.442;2024-01-25T07:18:16;102958.03;;;5.15;100.00
71966;BME280;59836;52.132;5.442;2024-01-25T07:20:43;102970.47;;;5.16;100.00
71966;BME280;59836;52.132;5.442;2024-01-25T07:23:10;102974.66;;;5.19;100.00
71966;BME280;59836;52.132;5.442;2024-01-25T07:25:37;102976.69;;;5.17;100.00
71966;BME280;59836;52.132;5.442;2024-01-25T07:28:03;102979.38;;;5.17;100.00
71966;BME280;59836;52.132;5.442;2024-01-25T07:30:30;102976.69;;;5.17;100.00
71966;BME280;59836;52.132;5.442;2024-01-25T07:32:57;102973.34;;;5.15;100.00
71966;BME280;59836;52.132;5.442;2024-01-25T07:35:24;102967.94;;;5.15;100.00
71966;BME280;59836;52.132;5.442;2024-01-25T07:37:50;102962.56;;;5.15;100.00
71966;BME280;59836;52.132;5.442;2024-01-25T07:40:17;102965.91;;;5.17;100.00
71966;BME280;59836;52.132;5.442;2024-01-25T07:42:43;102967.94;;;5.15;100.00
71966;BME280;59836;52.132;5.442;2024-01-25T07:45:10;102968.97;;;5.14;100.00
71966;BME280;59836;52.132;5.442;2024-01-25T07:47:42;102976.03;;;5.15;100.00
71966;BME280;59836;52.132;5.442;2024-01-25T07:50:10;102959.22;;;5.13;100.00
71966;BME280;59836;52.132;5.442;2024-01-25T07:52:37;102961.75;;;5.14;100.00
71966;BME280;59836;52.132;5.442;2024-01-25T07:55:03;102952.84;;;5.14;100.00
71966;BME280;59836;52.132;5.442;2024-01-25T07:57:32;102958.22;;;5.14;100.00
71966;BME280;59836;52.132;5.442;2024-01-25T07:59:58;102962.56;;;5.15;100.00
71966;BME280;59836;52.132;5.442;2024-01-25T08:02:25;102956.38;;;5.14;100.00
71966;BME280;59836;52.132;5.442;2024-01-25T08:04:52;102958.22;;;5.14;100.00
71966;BME280;59836;52.132;5.442;2024-01-25T08:07:19;102961.09;;;5.12;100.00
71966;BME280;59836;52.132;5.442;2024-01-25T08:09:46;102962.94;;;5.12;100.00
71966;BME280;59836;52.132;5.442;2024-01-25T08:12:13;102975.72;;;5.10;100.00
71966;BME280;59836;52.132;5.442;2024-01-25T08:14:40;102992.22;;;5.07;100.00
71966;BME280;59836;52.132;5.442;2024-01-25T08:17:09;102983.50;;;5.05;100.00
71966;BME280;59836;52.132;5.442;2024-01-25T08:19:36;102986.84;;;5.07;100.00
71966;BME280;59836;52.132;5.442;2024-01-25T08:22:03;102990.38;;;5.07;100.00
71966;BME280;59836;52.132;5.442;2024-01-25T08:24:30;102999.09;;;5.09;100.00
71966;BME280;59836;52.132;5.442;2024-01-25T08:26:56;102994.38;;;5.11;100.00
71966;BME280;59836;52.132;5.442;2024-01-25T08:29:23;102987.81;;;5.14;100.00
71966;BME280;59836;52.132;5.442;2024-01-25T08:31:49;102984.09;;;5.15;100.00
71966;BME280;59836;52.132;5.442;2024-01-25T08:34:16;102990.13;;;5.17;100.00
71966;BME280;59836;52.132;5.442;2024-01-25T08:36:43;102978.34;;;5.18;100.00
71966;BME280;59836;52.132;5.442;2024-01-25T08:39:09;102985.03;;;5.22;100.00
71966;BME280;59836;52.132;5.442;2024-01-25T08:41:36;102982.19;;;5.24;100.00
71966;BME280;59836;52.132;5.442;2024-01-25T08:44:05;102988.03;;;5.27;100.00
71966;BME280;59836;52.132;5.442;2024-01-25T08:46:32;102997.41;;;5.31;100.00
71966;BME280;59836;52.132;5.442;2024-01-25T08:48:58;102998.06;;;5.34;100.00
71966;BME280;59836;52.132;5.442;2024-01-25T08:51:25;102993.50;;;5.34;100.00
71966;BME280;59836;52.132;5.442;2024-01-25T08:53:52;102998.38;;;5.39;100.00
71966;BME280;59836;52.132;5.442;2024-01-25T08:56:18;103000.69;;;5.42;100.00
71966;BME280;59836;52.132;5.442;2024-01-25T08:58:45;103002.00;;;5.46;100.00
71966;BME280;59836;52.132;5.442;2024-01-25T09:01:13;102989.22;;;5.48;100.00
71966;BME280;59836;52.132;5.442;2024-01-25T09:03:40;102990.53;;;5.52;100.00
71966;BME280;59836;52.132;5.442;2024-01-25T09:06:07;102991.84;;;5.56;100.00
71966;BME280;59836;52.132;5.442;2024-01-25T09:08:34;102987.75;;;5.60;100.00
71966;BME280;59836;52.132;5.442;2024-01-25T09:11:01;102999.47;;;5.68;100.00
71966;BME280;59836;52.132;5.442;2024-01-25T09:13:27;102998.91;;;5.72;100.00
71966;BME280;59836;52.132;5.442;2024-01-25T09:15:54;102995.38;;;5.72;100.00
71966;BME280;59836;52.132;5.442;2024-01-25T09:18:21;103002.44;;;5.73;100.00
71966;BME280;59836;52.132;5.442;2024-01-25T09:20:47;103012.38;;;5.72;100.00
71966;BME280;59836;52.132;5.442;2024-01-25T09:23:15;103019.63;;;5.72;100.00
71966;BME280;59836;52.132;5.442;2024-01-25T09:25:46;103009.88;;;5.71;100.00
71966;BME280;59836;52.132;5.442;2024-01-25T09:28:13;103009.88;;;5.71;100.00
71966;BME280;59836;52.132;5.442;2024-01-25T09:30:40;103006.16;;;5.72;100.00
71966;BME280;59836;52.132;5.442;2024-01-25T09:33:07;103007.47;;;5.76;100.00
71966;BME280;59836;52.132;5.442;2024-01-25T09:35:33;102994.47;;;5.80;100.00
71966;BME280;59836;52.132;5.442;2024-01-25T09:38:01;102987.69;;;5.84;100.00
71966;BME280;59836;52.132;5.442;2024-01-25T09:40:27;102980.25;;;5.86;100.00
71966;BME280;59836;52.132;5.442;2024-01-25T09:42:54;102987.31;;;5.87;100.00
71966;BME280;59836;52.132;5.442;2024-01-25T09:45:21;102989.81;;;5.88;100.00
71966;BME280;59836;52.132;5.442;2024-01-25T09:47:50;103001.06;;;5.92;100.00
71966;BME280;59836;52.132;5.442;2024-01-25T09:50:17;102996.50;;;5.93;100.00
71966;BME280;59836;52.132;5.442;2024-01-25T09:52:45;102993.63;;;5.94;100.00
71966;BME280;59836;52.132;5.442;2024-01-25T09:55:14;103000.50;;;5.97;100.00
71966;BME280;59836;52.132;5.442;2024-01-25T09:57:45;102997.81;;;5.97;100.00
71966;BME280;59836;52.132;5.442;2024-01-25T10:00:13;102983.97;;;6.00;100.00
71966;BME280;59836;52.132;5.442;2024-01-25T10:02:40;102982.25;;;6.07;100.00
71966;BME280;59836;52.132;5.442;2024-01-25T10:05:07;102964.50;;;6.13;100.00
71966;BME280;59836;52.132;5.442;2024-01-25T10:07:46;102962.91;;;6.18;100.00
71966;BME280;59836;52.132;5.442;2024-01-25T10:10:14;102958.81;;;6.23;100.00
71966;BME280;59836;52.132;5.442;2024-01-25T10:12:42;102956.41;;;6.28;100.00
71966;BME280;59836;52.132;5.442;2024-01-25T10:15:10;102972.03;;;6.32;100.00
71966;BME280;59836;52.132;5.442;2024-01-25T10:17:38;102989.66;;;6.35;100.00
71966;BME280;59836;52.132;5.442;2024-01-25T10:20:25;102981.84;;;6.40;100.00
71966;BME280;59836;52.132;5.442;2024-01-25T10:22:57;102980.44;;;6.44;100.00
71966;BME280;59836;52.132;5.442;2024-01-25T10:25:26;102969.94;;;6.49;100.00
71966;BME280;59836;52.132;5.442;2024-01-25T10:27:53;102966.66;;;6.54;100.00
71966;BME280;59836;52.132;5.442;2024-01-25T10:30:20;102979.59;;;6.59;100.00
71966;BME280;59836;52.132;5.442;2024-01-25T10:32:48;102981.91;;;6.62;100.00
71966;BME280;59836;52.132;5.442;2024-01-25T10:35:18;102973.44;;;6.65;100.00
71966;BME280;59836;52.132;5.442;2024-01-25T10:37:49;102966.00;;;6.67;100.00
71966;BME280;59836;52.132;5.442;2024-01-25T10:40:21;102975.38;;;6.71;100.00
71966;BME280;59836;52.132;5.442;2024-01-25T10:42:48;102960.88;;;6.72;100.00
71966;BME280;59836;52.132;5.442;2024-01-25T10:45:16;102958.59;;;6.76;100.00
71966;BME280;59836;52.132;5.442;2024-01-25T10:47:42;102966.69;;;6.76;100.00
71966;BME280;59836;52.132;5.442;2024-01-25T10:50:12;102977.09;;;6.79;100.00
71966;BME280;59836;52.132;5.442;2024-01-25T10:52:41;102965.66;;;6.77;100.00
71966;BME280;59836;52.132;5.442;2024-01-25T10:55:09;102963.81;;;6.77;100.00
71966;BME280;59836;52.132;5.442;2024-01-25T10:57:42;102959.06;;;6.79;100.00
71966;BME280;59836;52.132;5.442;2024-01-25T11:00:11;102956.81;;;6.83;100.00
71966;BME280;59836;52.132;5.442;2024-01-25T11:02:42;102951.25;;;6.85;100.00
71966;BME280;59836;52.132;5.442;2024-01-25T11:05:13;102958.31;;;6.86;100.00
71966;BME280;59836;52.132;5.442;2024-01-25T11:07:42;102954.59;;;6.87;100.00
71966;BME280;59836;52.132;5.442;2024-01-25T11:10:20;102940.69;;;6.90;100.00
71966;BME280;59836;52.132;5.442;2024-01-25T11:12:54;102916.03;;;6.93;100.00
71966;BME280;59836;52.132;5.442;2024-01-25T11:15:22;102909.59;;;6.94;100.00
71966;BME280;59836;52.132;5.442;2024-01-25T11:17:56;102918.53;;;6.94;100.00
71966;BME280;59836;52.132;5.442;2024-01-25T11:20:24;102912.94;;;6.96;100.00
71966;BME280;59836;52.132;5.442;2024-01-25T11:22:59;102914.59;;;6.97;100.00
71966;BME280;59836;52.132;5.442;2024-01-25T11:25:28;102920.00;;;6.97;100.00
71966;BME280;59836;52.132;5.442;2024-01-25T11:27:55;102918.59;;;7.01;100.00
71966;BME280;59836;52.132;5.442;2024-01-25T11:30:22;102921.53;;;7.06;100.00
71966;BME280;59836;52.132;5.442;2024-01-25T11:32:49;102915.09;;;7.07;100.00
71966;BME280;59836;52.132;5.442;2024-01-25T11:35:16;102908.25;;;7.05;100.00
71966;BME280;59836;52.132;5.442;2024-01-25T11:37:47;102896.63;;;7.04;100.00
71966;BME280;59836;52.132;5.442;2024-01-25T11:40:15;102879.78;;;7.02;100.00
71966;BME280;59836;52.132;5.442;2024-01-25T11:42:44;102886.03;;;7.03;100.00
71966;BME280;59836;52.132;5.442;2024-01-25T11:45:12;102892.25;;;7.03;100.00
71966;BME280;59836;52.132;5.442;2024-01-25T11:47:38;102891.84;;;7.06;100.00
71966;BME280;59836;52.132;5.442;2024-01-25T11:50:06;102881.69;;;7.08;100.00
71966;BME280;59836;52.132;5.442;2024-01-25T11:52:34;102872.59;;;7.09;100.00
71966;BME280;59836;52.132;5.442;2024-01-25T11:55:10;102871.16;;;7.14;100.00
71966;BME280;59836;52.132;5.442;2024-01-25T11:57:39;102863.69;;;7.16;100.00
71966;BME280;59836;52.132;5.442;2024-01-25T12:00:09;102851.88;;;7.17;100.00
71966;BME280;59836;52.132;5.442;2024-01-25T12:02:38;102851.88;;;7.17;100.00
71966;BME280;59836;52.132;5.442;2024-01-25T12:05:05;102849.19;;;7.17;100.00
71966;BME280;59836;52.132;5.442;2024-01-25T12:07:33;102850.84;;;7.18;100.00
71966;BME280;59836;52.132;5.442;2024-01-25T12:10:04;102863.31;;;7.19;100.00
71966;BME280;59836;52.132;5.442;2024-01-25T12:12:31;102855.22;;;7.19;100.00
71966;BME280;59836;52.132;5.442;2024-01-25T12:14:59;102850.47;;;7.21;100.00
71966;BME280;59836;52.132;5.442;2024-01-25T12:17:27;102841.97;;;7.24;100.00
71966;BME280;59836;52.132;5.442;2024-01-25T12:19:56;102838.22;;;7.25;100.00
71966;BME280;59836;52.132;5.442;2024-01-25T12:22:24;102836.16;;;7.27;100.00
71966;BME280;59836;52.132;5.442;2024-01-25T12:24:54;102829.75;;;7.28;100.00
71966;BME280;59836;52.132;5.442;2024-01-25T12:27:26;102832.03;;;7.31;100.00
71966;BME280;59836;52.132;5.442;2024-01-25T12:29:53;102836.41;;;7.32;100.00
71966;BME280;59836;52.132;5.442;2024-01-25T12:32:20;102829.97;;;7.33;100.00
71966;BME280;59836;52.132;5.442;2024-01-25T12:34:59;102823.38;;;7.36;100.00
71966;BME280;59836;52.132;5.442;2024-01-25T12:37:29;102830.22;;;7.38;100.00
71966;BME280;59836;52.132;5.442;2024-01-25T12:39:56;102825.47;;;7.41;100.00
71966;BME280;59836;52.132;5.442;2024-01-25T12:42:23;102821.72;;;7.42;100.00
71966;BME280;59836;52.132;5.442;2024-01-25T12:44:52;102821.31;;;7.45;100.00
71966;BME280;59836;52.132;5.442;2024-01-25T12:47:19;102806.16;;;7.44;100.00
71966;BME280;59836;52.132;5.442;2024-01-25T12:49:45;102810.94;;;7.48;100.00
71966;BME280;59836;52.132;5.442;2024-01-25T12:52:14;102812.44;;;7.51;100.00
71966;BME280;59836;52.132;5.442;2024-01-25T12:54:41;102813.06;;;7.53;100.00